This is the latest recevied weather packets stored in our database for station/object DG4LX-10. If no packets are shown the sender has not sent any weather packets the latest 10 day(s).
| Time | Temp. | Humidity | Pressure | Rain* | Wind** | Luminosity | Snow |
|---|---|---|---|---|---|---|---|
| 1787799121 | 25.56° C | 30% | 1020.6 hPa | - | - | - | - |
| 1787797320 | 25.56° C | 30% | 1020.9 hPa | - | - | - | - |
| 1787795520 | 25.56° C | 30% | 1021.3 hPa | - | - | - | - |
| 1787793720 | 25.56° C | 31% | 1021.4 hPa | - | - | - | - |
| 1787791920 | 25.56° C | 30% | 1021.6 hPa | - | - | - | - |
| 1787790120 | 25.56° C | 31% | 1021.5 hPa | - | - | - | - |
| 1787788320 | 25.56° C | 30% | 1021.6 hPa | - | - | - | - |
| 1787786520 | 26.11° C | 30% | 1021.9 hPa | - | - | - | - |
| 1787784720 | 26.11° C | 30% | 1022 hPa | - | - | - | - |
| 1787782920 | 26.11° C | 30% | 1022.2 hPa | - | - | - | - |
| 1787781120 | 26.11° C | 30% | 1022.2 hPa | - | - | - | - |
| 1787779320 | 26.67° C | 30% | 1022.2 hPa | - | - | - | - |
| 1787777520 | 26.11° C | 30% | 1022.3 hPa | - | - | - | - |
| 1787775720 | 26.67° C | 30% | 1022.4 hPa | - | - | - | - |
| 1787773920 | 26.67° C | 29% | 1022.3 hPa | - | - | - | - |
| 1787772120 | 26.67° C | 29% | 1022.2 hPa | - | - | - | - |
| 1787770319 | 27.22° C | 29% | 1022.1 hPa | - | - | - | - |
| 1787768519 | 27.22° C | 29% | 1021.9 hPa | - | - | - | - |
| 1787766719 | 26.67° C | 30% | 1021.9 hPa | - | - | - | - |
| 1787766229 | 30.56° C | 36% | 1018.5 hPa | - | - | - | - |
* Rain since midnight (hover to see other rain measurements)
** Current wind speed in m/s (hover to see current wind gust speed)